sensor_id;sensor_type;location;lat;lon;timestamp;P1;durP1;ratioP1;P2;durP2;ratioP2
36855;SDS011;22788;51.434;6.786;2023-05-07T00:01:47;2.70;;;2.08;;
36855;SDS011;22788;51.434;6.786;2023-05-07T00:04:12;4.22;;;2.30;;
36855;SDS011;22788;51.434;6.786;2023-05-07T00:06:38;1.85;;;1.65;;
36855;SDS011;22788;51.434;6.786;2023-05-07T00:09:04;2.55;;;1.98;;
36855;SDS011;22788;51.434;6.786;2023-05-07T00:11:30;2.53;;;2.00;;
36855;SDS011;22788;51.434;6.786;2023-05-07T00:13:56;6.15;;;2.65;;
36855;SDS011;22788;51.434;6.786;2023-05-07T00:16:21;4.22;;;2.80;;
36855;SDS011;22788;51.434;6.786;2023-05-07T00:18:48;4.07;;;2.50;;
36855;SDS011;22788;51.434;6.786;2023-05-07T00:21:14;2.17;;;1.95;;
36855;SDS011;22788;51.434;6.786;2023-05-07T00:23:40;3.42;;;2.33;;
36855;SDS011;22788;51.434;6.786;2023-05-07T00:26:05;3.65;;;2.58;;
36855;SDS011;22788;51.434;6.786;2023-05-07T00:28:31;3.28;;;2.90;;
36855;SDS011;22788;51.434;6.786;2023-05-07T00:30:56;3.20;;;2.08;;
36855;SDS011;22788;51.434;6.786;2023-05-07T00:33:22;3.67;;;2.30;;
36855;SDS011;22788;51.434;6.786;2023-05-07T00:35:49;1.98;;;1.60;;
36855;SDS011;22788;51.434;6.786;2023-05-07T00:38:15;2.63;;;2.38;;
36855;SDS011;22788;51.434;6.786;2023-05-07T00:40:40;3.03;;;2.40;;
36855;SDS011;22788;51.434;6.786;2023-05-07T00:43:06;2.67;;;2.38;;
36855;SDS011;22788;51.434;6.786;2023-05-07T00:45:32;3.30;;;1.92;;
36855;SDS011;22788;51.434;6.786;2023-05-07T00:47:59;4.05;;;2.65;;
36855;SDS011;22788;51.434;6.786;2023-05-07T00:50:25;3.72;;;2.47;;
36855;SDS011;22788;51.434;6.786;2023-05-07T00:52:53;2.95;;;2.53;;
36855;SDS011;22788;51.434;6.786;2023-05-07T00:55:19;3.67;;;3.00;;
36855;SDS011;22788;51.434;6.786;2023-05-07T00:57:47;3.22;;;2.92;;
36855;SDS011;22788;51.434;6.786;2023-05-07T01:00:15;4.72;;;3.00;;
36855;SDS011;22788;51.434;6.786;2023-05-07T01:02:41;4.63;;;2.97;;
36855;SDS011;22788;51.434;6.786;2023-05-07T01:05:08;2.55;;;2.35;;
36855;SDS011;22788;51.434;6.786;2023-05-07T01:07:35;2.50;;;2.30;;
36855;SDS011;22788;51.434;6.786;2023-05-07T01:10:03;3.25;;;2.40;;
36855;SDS011;22788;51.434;6.786;2023-05-07T01:12:30;2.95;;;2.35;;
36855;SDS011;22788;51.434;6.786;2023-05-07T01:14:56;2.97;;;2.45;;
36855;SDS011;22788;51.434;6.786;2023-05-07T01:17:22;1.92;;;1.83;;
36855;SDS011;22788;51.434;6.786;2023-05-07T01:19:48;3.17;;;2.45;;
36855;SDS011;22788;51.434;6.786;2023-05-07T01:22:14;3.40;;;2.33;;
36855;SDS011;22788;51.434;6.786;2023-05-07T01:24:42;2.78;;;2.55;;
36855;SDS011;22788;51.434;6.786;2023-05-07T01:27:08;4.00;;;2.38;;
36855;SDS011;22788;51.434;6.786;2023-05-07T01:29:34;4.70;;;3.00;;
36855;SDS011;22788;51.434;6.786;2023-05-07T01:32:00;3.40;;;3.10;;
36855;SDS011;22788;51.434;6.786;2023-05-07T01:34:28;2.80;;;2.53;;
36855;SDS011;22788;51.434;6.786;2023-05-07T01:36:57;3.22;;;2.42;;
36855;SDS011;22788;51.434;6.786;2023-05-07T01:39:24;2.80;;;2.13;;
36855;SDS011;22788;51.434;6.786;2023-05-07T01:41:52;4.97;;;2.63;;
36855;SDS011;22788;51.434;6.786;2023-05-07T01:44:18;2.70;;;2.42;;
36855;SDS011;22788;51.434;6.786;2023-05-07T01:46:44;4.05;;;2.92;;
36855;SDS011;22788;51.434;6.786;2023-05-07T01:49:11;2.45;;;2.20;;
36855;SDS011;22788;51.434;6.786;2023-05-07T01:51:37;3.97;;;2.60;;
36855;SDS011;22788;51.434;6.786;2023-05-07T01:54:02;3.90;;;2.50;;
36855;SDS011;22788;51.434;6.786;2023-05-07T01:56:28;3.67;;;2.60;;
36855;SDS011;22788;51.434;6.786;2023-05-07T01:58:55;2.60;;;2.40;;
36855;SDS011;22788;51.434;6.786;2023-05-07T02:01:21;3.63;;;3.10;;
36855;SDS011;22788;51.434;6.786;2023-05-07T02:03:46;4.10;;;3.70;;
36855;SDS011;22788;51.434;6.786;2023-05-07T02:06:12;5.35;;;2.50;;
36855;SDS011;22788;51.434;6.786;2023-05-07T02:08:37;3.03;;;2.75;;
36855;SDS011;22788;51.434;6.786;2023-05-07T02:11:03;3.25;;;2.50;;
36855;SDS011;22788;51.434;6.786;2023-05-07T02:13:29;4.15;;;2.60;;
36855;SDS011;22788;51.434;6.786;2023-05-07T02:15:58;3.28;;;2.28;;
36855;SDS011;22788;51.434;6.786;2023-05-07T02:18:24;2.88;;;2.50;;
36855;SDS011;22788;51.434;6.786;2023-05-07T02:20:49;4.35;;;2.55;;
36855;SDS011;22788;51.434;6.786;2023-05-07T02:23:15;4.30;;;2.40;;
36855;SDS011;22788;51.434;6.786;2023-05-07T02:25:41;3.55;;;3.17;;
36855;SDS011;22788;51.434;6.786;2023-05-07T02:28:06;4.68;;;3.95;;
36855;SDS011;22788;51.434;6.786;2023-05-07T02:30:32;3.45;;;2.88;;
36855;SDS011;22788;51.434;6.786;2023-05-07T02:32:59;3.78;;;2.67;;
36855;SDS011;22788;51.434;6.786;2023-05-07T02:35:24;5.65;;;3.22;;
36855;SDS011;22788;51.434;6.786;2023-05-07T02:37:50;3.67;;;2.85;;
36855;SDS011;22788;51.434;6.786;2023-05-07T02:40:16;3.30;;;2.67;;
36855;SDS011;22788;51.434;6.786;2023-05-07T02:42:41;3.80;;;2.80;;
36855;SDS011;22788;51.434;6.786;2023-05-07T02:45:07;3.10;;;2.47;;
36855;SDS011;22788;51.434;6.786;2023-05-07T02:47:34;3.28;;;2.60;;
36855;SDS011;22788;51.434;6.786;2023-05-07T02:50:01;3.45;;;2.70;;
36855;SDS011;22788;51.434;6.786;2023-05-07T02:52:27;4.07;;;3.00;;
36855;SDS011;22788;51.434;6.786;2023-05-07T02:54:52;4.25;;;3.58;;
36855;SDS011;22788;51.434;6.786;2023-05-07T02:57:18;4.13;;;3.65;;
36855;SDS011;22788;51.434;6.786;2023-05-07T02:59:43;4.15;;;2.88;;
36855;SDS011;22788;51.434;6.786;2023-05-07T03:02:09;4.13;;;2.88;;
36855;SDS011;22788;51.434;6.786;2023-05-07T03:04:34;4.05;;;3.28;;
36855;SDS011;22788;51.434;6.786;2023-05-07T03:07:01;2.97;;;2.35;;
36855;SDS011;22788;51.434;6.786;2023-05-07T03:09:27;4.45;;;3.03;;
36855;SDS011;22788;51.434;6.786;2023-05-07T03:11:53;6.85;;;4.80;;
36855;SDS011;22788;51.434;6.786;2023-05-07T03:14:18;7.40;;;4.70;;
36855;SDS011;22788;51.434;6.786;2023-05-07T03:16:44;4.03;;;3.40;;
36855;SDS011;22788;51.434;6.786;2023-05-07T03:19:09;4.32;;;2.58;;
36855;SDS011;22788;51.434;6.786;2023-05-07T03:21:35;6.22;;;4.60;;
36855;SDS011;22788;51.434;6.786;2023-05-07T03:24:02;3.20;;;2.90;;
36855;SDS011;22788;51.434;6.786;2023-05-07T03:26:28;3.83;;;3.10;;
36855;SDS011;22788;51.434;6.786;2023-05-07T03:28:54;7.43;;;5.68;;
36855;SDS011;22788;51.434;6.786;2023-05-07T03:31:19;8.82;;;5.90;;
36855;SDS011;22788;51.434;6.786;2023-05-07T03:33:51;4.47;;;3.83;;
36855;SDS011;22788;51.434;6.786;2023-05-07T03:36:17;4.18;;;3.75;;
36855;SDS011;22788;51.434;6.786;2023-05-07T03:38:43;4.13;;;2.78;;
36855;SDS011;22788;51.434;6.786;2023-05-07T03:41:10;3.10;;;2.80;;
36855;SDS011;22788;51.434;6.786;2023-05-07T03:43:36;3.80;;;3.15;;
36855;SDS011;22788;51.434;6.786;2023-05-07T03:46:01;3.47;;;3.20;;
36855;SDS011;22788;51.434;6.786;2023-05-07T03:48:27;7.00;;;4.85;;
36855;SDS011;22788;51.434;6.786;2023-05-07T03:50:53;8.93;;;6.45;;
36855;SDS011;22788;51.434;6.786;2023-05-07T03:53:18;4.70;;;2.92;;
36855;SDS011;22788;51.434;6.786;2023-05-07T03:55:44;4.75;;;4.22;;
36855;SDS011;22788;51.434;6.786;2023-05-07T03:58:11;4.35;;;3.95;;
36855;SDS011;22788;51.434;6.786;2023-05-07T04:00:36;4.07;;;3.50;;
36855;SDS011;22788;51.434;6.786;2023-05-07T04:03:02;3.20;;;2.58;;
36855;SDS011;22788;51.434;6.786;2023-05-07T04:05:28;4.25;;;2.65;;
36855;SDS011;22788;51.434;6.786;2023-05-07T04:07:53;5.93;;;4.40;;
36855;SDS011;22788;51.434;6.786;2023-05-07T04:10:19;5.07;;;4.20;;
36855;SDS011;22788;51.434;6.786;2023-05-07T04:12:44;4.63;;;3.95;;
36855;SDS011;22788;51.434;6.786;2023-05-07T04:15:11;3.45;;;2.88;;
36855;SDS011;22788;51.434;6.786;2023-05-07T04:17:37;4.22;;;3.13;;
36855;SDS011;22788;51.434;6.786;2023-05-07T04:20:03;3.00;;;2.70;;
36855;SDS011;22788;51.434;6.786;2023-05-07T04:22:30;3.67;;;3.10;;
36855;SDS011;22788;51.434;6.786;2023-05-07T04:24:55;2.50;;;2.30;;
36855;SDS011;22788;51.434;6.786;2023-05-07T04:27:21;4.13;;;3.28;;
36855;SDS011;22788;51.434;6.786;2023-05-07T04:29:46;5.75;;;3.50;;
36855;SDS011;22788;51.434;6.786;2023-05-07T04:32:13;3.55;;;3.10;;
36855;SDS011;22788;51.434;6.786;2023-05-07T04:34:39;3.35;;;3.05;;
36855;SDS011;22788;51.434;6.786;2023-05-07T04:37:04;4.15;;;3.75;;
36855;SDS011;22788;51.434;6.786;2023-05-07T04:39:30;3.50;;;3.05;;
36855;SDS011;22788;51.434;6.786;2023-05-07T04:41:57;5.03;;;4.28;;
36855;SDS011;22788;51.434;6.786;2023-05-07T04:44:22;4.05;;;3.15;;
36855;SDS011;22788;51.434;6.786;2023-05-07T04:46:48;3.40;;;3.10;;
36855;SDS011;22788;51.434;6.786;2023-05-07T04:49:15;7.25;;;5.35;;
36855;SDS011;22788;51.434;6.786;2023-05-07T04:51:40;5.80;;;3.30;;
36855;SDS011;22788;51.434;6.786;2023-05-07T04:54:06;3.25;;;2.95;;
36855;SDS011;22788;51.434;6.786;2023-05-07T04:56:32;3.25;;;2.85;;
36855;SDS011;22788;51.434;6.786;2023-05-07T04:58:57;4.60;;;3.47;;
36855;SDS011;22788;51.434;6.786;2023-05-07T05:01:23;9.10;;;7.60;;
36855;SDS011;22788;51.434;6.786;2023-05-07T05:03:48;3.97;;;2.63;;
36855;SDS011;22788;51.434;6.786;2023-05-07T05:06:15;9.98;;;6.35;;
36855;SDS011;22788;51.434;6.786;2023-05-07T05:08:41;3.55;;;3.20;;
36855;SDS011;22788;51.434;6.786;2023-05-07T05:11:06;3.75;;;3.45;;
36855;SDS011;22788;51.434;6.786;2023-05-07T05:13:32;3.78;;;3.17;;
36855;SDS011;22788;51.434;6.786;2023-05-07T05:15:58;7.07;;;5.60;;
36855;SDS011;22788;51.434;6.786;2023-05-07T05:18:23;3.58;;;3.28;;
36855;SDS011;22788;51.434;6.786;2023-05-07T05:20:49;4.03;;;3.30;;
36855;SDS011;22788;51.434;6.786;2023-05-07T05:23:17;4.75;;;3.67;;
36855;SDS011;22788;51.434;6.786;2023-05-07T05:25:43;4.30;;;3.90;;
36855;SDS011;22788;51.434;6.786;2023-05-07T05:28:08;4.47;;;3.78;;
36855;SDS011;22788;51.434;6.786;2023-05-07T05:30:34;4.88;;;3.53;;
36855;SDS011;22788;51.434;6.786;2023-05-07T05:32:59;3.80;;;3.30;;
36855;SDS011;22788;51.434;6.786;2023-05-07T05:35:25;9.73;;;8.73;;
36855;SDS011;22788;51.434;6.786;2023-05-07T05:37:51;5.80;;;4.50;;
36855;SDS011;22788;51.434;6.786;2023-05-07T05:40:18;8.10;;;5.25;;
36855;SDS011;22788;51.434;6.786;2023-05-07T05:42:43;6.47;;;5.47;;
36855;SDS011;22788;51.434;6.786;2023-05-07T05:45:09;4.20;;;3.80;;
36855;SDS011;22788;51.434;6.786;2023-05-07T05:47:35;4.88;;;4.15;;
36855;SDS011;22788;51.434;6.786;2023-05-07T05:50:00;4.50;;;4.05;;
36855;SDS011;22788;51.434;6.786;2023-05-07T05:52:26;7.93;;;5.90;;
36855;SDS011;22788;51.434;6.786;2023-05-07T05:54:53;7.72;;;4.45;;
36855;SDS011;22788;51.434;6.786;2023-05-07T05:57:20;5.05;;;4.00;;
36855;SDS011;22788;51.434;6.786;2023-05-07T05:59:46;9.13;;;7.35;;
36855;SDS011;22788;51.434;6.786;2023-05-07T06:02:11;6.20;;;5.40;;
36855;SDS011;22788;51.434;6.786;2023-05-07T06:04:37;8.73;;;6.55;;
36855;SDS011;22788;51.434;6.786;2023-05-07T06:07:03;4.75;;;4.22;;
36855;SDS011;22788;51.434;6.786;2023-05-07T06:09:28;7.07;;;5.68;;
36855;SDS011;22788;51.434;6.786;2023-05-07T06:11:54;7.22;;;4.78;;
36855;SDS011;22788;51.434;6.786;2023-05-07T06:14:21;6.70;;;5.47;;
36855;SDS011;22788;51.434;6.786;2023-05-07T06:16:46;8.82;;;7.00;;
36855;SDS011;22788;51.434;6.786;2023-05-07T06:19:12;7.90;;;6.68;;
36855;SDS011;22788;51.434;6.786;2023-05-07T06:21:38;6.65;;;5.90;;
36855;SDS011;22788;51.434;6.786;2023-05-07T06:24:04;7.38;;;6.65;;
36855;SDS011;22788;51.434;6.786;2023-05-07T06:26:30;9.50;;;7.82;;
36855;SDS011;22788;51.434;6.786;2023-05-07T06:28:56;6.43;;;4.97;;
36855;SDS011;22788;51.434;6.786;2023-05-07T06:31:23;9.00;;;6.00;;
36855;SDS011;22788;51.434;6.786;2023-05-07T06:33:54;6.53;;;5.00;;
36855;SDS011;22788;51.434;6.786;2023-05-07T06:36:19;5.88;;;4.15;;
36855;SDS011;22788;51.434;6.786;2023-05-07T06:38:45;4.88;;;4.03;;
36855;SDS011;22788;51.434;6.786;2023-05-07T06:41:11;11.88;;;6.30;;
36855;SDS011;22788;51.434;6.786;2023-05-07T06:43:36;5.25;;;4.20;;
36855;SDS011;22788;51.434;6.786;2023-05-07T06:46:02;6.10;;;4.82;;
36855;SDS011;22788;51.434;6.786;2023-05-07T06:48:29;4.38;;;3.80;;
36855;SDS011;22788;51.434;6.786;2023-05-07T06:50:55;5.07;;;4.00;;
36855;SDS011;22788;51.434;6.786;2023-05-07T06:53:21;6.00;;;4.75;;
36855;SDS011;22788;51.434;6.786;2023-05-07T06:55:46;7.13;;;4.55;;
36855;SDS011;22788;51.434;6.786;2023-05-07T06:58:12;6.13;;;4.47;;
36855;SDS011;22788;51.434;6.786;2023-05-07T07:00:37;4.40;;;3.88;;
36855;SDS011;22788;51.434;6.786;2023-05-07T07:03:03;5.85;;;5.03;;
36855;SDS011;22788;51.434;6.786;2023-05-07T07:05:30;5.50;;;4.95;;
36855;SDS011;22788;51.434;6.786;2023-05-07T07:07:56;5.20;;;4.13;;
36855;SDS011;22788;51.434;6.786;2023-05-07T07:10:21;3.83;;;3.47;;
36855;SDS011;22788;51.434;6.786;2023-05-07T07:12:48;6.40;;;4.13;;
36855;SDS011;22788;51.434;6.786;2023-05-07T07:15:14;4.28;;;3.88;;
36855;SDS011;22788;51.434;6.786;2023-05-07T07:17:40;6.65;;;4.03;;
36855;SDS011;22788;51.434;6.786;2023-05-07T07:20:06;4.90;;;3.78;;
36855;SDS011;22788;51.434;6.786;2023-05-07T07:22:33;6.55;;;4.68;;
36855;SDS011;22788;51.434;6.786;2023-05-07T07:24:59;4.18;;;3.75;;
36855;SDS011;22788;51.434;6.786;2023-05-07T07:27:25;9.48;;;4.03;;
36855;SDS011;22788;51.434;6.786;2023-05-07T07:29:50;4.85;;;4.28;;
36855;SDS011;22788;51.434;6.786;2023-05-07T07:32:16;5.35;;;3.95;;
36855;SDS011;22788;51.434;6.786;2023-05-07T07:34:42;4.15;;;3.65;;
36855;SDS011;22788;51.434;6.786;2023-05-07T07:37:07;4.15;;;3.75;;
36855;SDS011;22788;51.434;6.786;2023-05-07T07:39:34;4.40;;;3.92;;
36855;SDS011;22788;51.434;6.786;2023-05-07T07:42:00;6.13;;;4.35;;
36855;SDS011;22788;51.434;6.786;2023-05-07T07:44:26;6.15;;;5.38;;
36855;SDS011;22788;51.434;6.786;2023-05-07T07:46:53;4.78;;;4.00;;
36855;SDS011;22788;51.434;6.786;2023-05-07T07:49:18;5.97;;;3.30;;
36855;SDS011;22788;51.434;6.786;2023-05-07T07:51:44;6.25;;;4.18;;
36855;SDS011;22788;51.434;6.786;2023-05-07T07:54:09;5.18;;;3.92;;
36855;SDS011;22788;51.434;6.786;2023-05-07T07:56:36;3.38;;;3.05;;
36855;SDS011;22788;51.434;6.786;2023-05-07T07:59:02;4.32;;;3.78;;
36855;SDS011;22788;51.434;6.786;2023-05-07T08:01:29;4.28;;;3.30;;
36855;SDS011;22788;51.434;6.786;2023-05-07T08:03:55;8.18;;;4.82;;
36855;SDS011;22788;51.434;6.786;2023-05-07T08:06:21;4.72;;;3.60;;
36855;SDS011;22788;51.434;6.786;2023-05-07T08:08:47;4.57;;;4.18;;
36855;SDS011;22788;51.434;6.786;2023-05-07T08:11:12;4.22;;;3.25;;
36855;SDS011;22788;51.434;6.786;2023-05-07T08:13:39;5.45;;;3.65;;
36855;SDS011;22788;51.434;6.786;2023-05-07T08:16:05;4.00;;;3.60;;
36855;SDS011;22788;51.434;6.786;2023-05-07T08:18:31;4.30;;;3.53;;
36855;SDS011;22788;51.434;6.786;2023-05-07T08:20:56;4.30;;;3.00;;
36855;SDS011;22788;51.434;6.786;2023-05-07T08:23:22;4.75;;;3.17;;
36855;SDS011;22788;51.434;6.786;2023-05-07T08:25:47;3.15;;;2.80;;
36855;SDS011;22788;51.434;6.786;2023-05-07T08:28:13;4.75;;;2.58;;
36855;SDS011;22788;51.434;6.786;2023-05-07T08:30:40;4.75;;;3.05;;
36855;SDS011;22788;51.434;6.786;2023-05-07T08:33:06;3.08;;;2.78;;
36855;SDS011;22788;51.434;6.786;2023-05-07T08:35:34;3.80;;;3.38;;
36855;SDS011;22788;51.434;6.786;2023-05-07T08:37:59;3.00;;;2.42;;
36855;SDS011;22788;51.434;6.786;2023-05-07T08:40:25;4.15;;;2.80;;
36855;SDS011;22788;51.434;6.786;2023-05-07T08:42:51;4.13;;;3.35;;
36855;SDS011;22788;51.434;6.786;2023-05-07T08:45:18;6.85;;;3.13;;
36855;SDS011;22788;51.434;6.786;2023-05-07T08:47:46;5.43;;;3.38;;
36855;SDS011;22788;51.434;6.786;2023-05-07T08:50:15;3.65;;;2.83;;
36855;SDS011;22788;51.434;6.786;2023-05-07T08:52:41;3.35;;;2.65;;
36855;SDS011;22788;51.434;6.786;2023-05-07T08:55:07;3.00;;;2.70;;
36855;SDS011;22788;51.434;6.786;2023-05-07T08:57:33;3.28;;;2.60;;
36855;SDS011;22788;51.434;6.786;2023-05-07T08:59:59;4.50;;;2.88;;
36855;SDS011;22788;51.434;6.786;2023-05-07T09:02:25;3.20;;;2.90;;
36855;SDS011;22788;51.434;6.786;2023-05-07T09:04:52;3.20;;;2.50;;
36855;SDS011;22788;51.434;6.786;2023-05-07T09:07:20;3.50;;;3.20;;
36855;SDS011;22788;51.434;6.786;2023-05-07T09:09:46;3.13;;;2.38;;
36855;SDS011;22788;51.434;6.786;2023-05-07T09:12:13;2.72;;;2.42;;
36855;SDS011;22788;51.434;6.786;2023-05-07T09:14:38;2.70;;;2.50;;
36855;SDS011;22788;51.434;6.786;2023-05-07T09:17:04;4.10;;;2.60;;
36855;SDS011;22788;51.434;6.786;2023-05-07T09:19:30;3.00;;;2.67;;
36855;SDS011;22788;51.434;6.786;2023-05-07T09:22:00;3.17;;;2.75;;
36855;SDS011;22788;51.434;6.786;2023-05-07T09:24:26;3.03;;;2.60;;
36855;SDS011;22788;51.434;6.786;2023-05-07T09:26:52;4.40;;;2.28;;
36855;SDS011;22788;51.434;6.786;2023-05-07T09:29:17;5.38;;;2.92;;
36855;SDS011;22788;51.434;6.786;2023-05-07T09:31:43;4.95;;;2.47;;
36855;SDS011;22788;51.434;6.786;2023-05-07T09:34:09;3.50;;;2.55;;
36855;SDS011;22788;51.434;6.786;2023-05-07T09:36:34;2.63;;;2.42;;
36855;SDS011;22788;51.434;6.786;2023-05-07T09:39:01;3.60;;;2.75;;
36855;SDS011;22788;51.434;6.786;2023-05-07T09:41:27;2.75;;;2.40;;
36855;SDS011;22788;51.434;6.786;2023-05-07T09:43:55;3.50;;;2.50;;
36855;SDS011;22788;51.434;6.786;2023-05-07T09:46:23;7.00;;;2.35;;
36855;SDS011;22788;51.434;6.786;2023-05-07T09:48:52;2.88;;;2.50;;
36855;SDS011;22788;51.434;6.786;2023-05-07T09:51:21;2.58;;;2.35;;
36855;SDS011;22788;51.434;6.786;2023-05-07T09:53:50;3.80;;;2.63;;
36855;SDS011;22788;51.434;6.786;2023-05-07T09:56:19;2.78;;;2.08;;
36855;SDS011;22788;51.434;6.786;2023-05-07T09:58:46;3.15;;;2.22;;
36855;SDS011;22788;51.434;6.786;2023-05-07T10:01:12;2.65;;;2.35;;
36855;SDS011;22788;51.434;6.786;2023-05-07T10:03:38;4.35;;;2.50;;
36855;SDS011;22788;51.434;6.786;2023-05-07T10:06:05;3.80;;;2.20;;
36855;SDS011;22788;51.434;6.786;2023-05-07T10:08:31;2.60;;;2.17;;
36855;SDS011;22788;51.434;6.786;2023-05-07T10:10:57;2.33;;;2.13;;
36855;SDS011;22788;51.434;6.786;2023-05-07T10:13:25;3.83;;;2.63;;
36855;SDS011;22788;51.434;6.786;2023-05-07T10:15:51;3.35;;;2.30;;
36855;SDS011;22788;51.434;6.786;2023-05-07T10:18:18;5.05;;;2.25;;
36855;SDS011;22788;51.434;6.786;2023-05-07T10:20:46;3.80;;;2.20;;
36855;SDS011;22788;51.434;6.786;2023-05-07T10:23:13;4.70;;;2.17;;
36855;SDS011;22788;51.434;6.786;2023-05-07T10:25:43;2.70;;;2.40;;
36855;SDS011;22788;51.434;6.786;2023-05-07T10:28:08;2.40;;;2.17;;
36855;SDS011;22788;51.434;6.786;2023-05-07T10:30:40;2.45;;;2.05;;
36855;SDS011;22788;51.434;6.786;2023-05-07T10:33:15;2.88;;;2.17;;
36855;SDS011;22788;51.434;6.786;2023-05-07T10:35:45;3.97;;;2.10;;
36855;SDS011;22788;51.434;6.786;2023-05-07T10:38:12;2.42;;;1.98;;
36855;SDS011;22788;51.434;6.786;2023-05-07T10:40:38;5.07;;;2.25;;
36855;SDS011;22788;51.434;6.786;2023-05-07T10:43:05;3.25;;;2.38;;
36855;SDS011;22788;51.434;6.786;2023-05-07T10:45:31;5.22;;;2.53;;
36855;SDS011;22788;51.434;6.786;2023-05-07T10:48:08;4.15;;;2.20;;
36855;SDS011;22788;51.434;6.786;2023-05-07T10:50:34;2.83;;;2.58;;
36855;SDS011;22788;51.434;6.786;2023-05-07T10:55:49;2.17;;;1.98;;
36855;SDS011;22788;51.434;6.786;2023-05-07T10:58:22;2.50;;;2.30;;
36855;SDS011;22788;51.434;6.786;2023-05-07T11:00:48;4.35;;;2.30;;
36855;SDS011;22788;51.434;6.786;2023-05-07T11:03:15;5.25;;;2.25;;
36855;SDS011;22788;51.434;6.786;2023-05-07T11:05:41;2.47;;;2.00;;
36855;SDS011;22788;51.434;6.786;2023-05-07T11:08:07;2.70;;;2.28;;
36855;SDS011;22788;51.434;6.786;2023-05-07T11:10:50;2.45;;;2.20;;
36855;SDS011;22788;51.434;6.786;2023-05-07T11:13:16;2.97;;;2.40;;
36855;SDS011;22788;51.434;6.786;2023-05-07T11:15:43;2.28;;;2.10;;
36855;SDS011;22788;51.434;6.786;2023-05-07T11:18:10;3.15;;;1.73;;
36855;SDS011;22788;51.434;6.786;2023-05-07T11:20:51;2.38;;;2.20;;
36855;SDS011;22788;51.434;6.786;2023-05-07T11:26:22;2.50;;;1.98;;
36855;SDS011;22788;51.434;6.786;2023-05-07T11:28:48;5.55;;;2.70;;
36855;SDS011;22788;51.434;6.786;2023-05-07T11:31:13;4.50;;;2.30;;
36855;SDS011;22788;51.434;6.786;2023-05-07T11:33:45;2.60;;;2.22;;
36855;SDS011;22788;51.434;6.786;2023-05-07T11:36:12;3.03;;;2.20;;
36855;SDS011;22788;51.434;6.786;2023-05-07T11:38:38;3.53;;;2.22;;
36855;SDS011;22788;51.434;6.786;2023-05-07T11:41:04;2.58;;;2.20;;
36855;SDS011;22788;51.434;6.786;2023-05-07T11:43:30;3.17;;;2.20;;
36855;SDS011;22788;51.434;6.786;2023-05-07T11:45:58;2.67;;;2.10;;
36855;SDS011;22788;51.434;6.786;2023-05-07T11:48:30;3.60;;;2.30;;
36855;SDS011;22788;51.434;6.786;2023-05-07T11:50:59;3.75;;;2.60;;
36855;SDS011;22788;51.434;6.786;2023-05-07T11:53:35;2.47;;;2.28;;
36855;SDS011;22788;51.434;6.786;2023-05-07T11:56:05;4.35;;;2.58;;
36855;SDS011;22788;51.434;6.786;2023-05-07T11:58:31;3.47;;;2.20;;
36855;SDS011;22788;51.434;6.786;2023-05-07T12:00:57;2.40;;;2.20;;
36855;SDS011;22788;51.434;6.786;2023-05-07T12:03:22;2.72;;;2.50;;
36855;SDS011;22788;51.434;6.786;2023-05-07T12:05:48;3.13;;;2.53;;
36855;SDS011;22788;51.434;6.786;2023-05-07T12:08:14;3.95;;;2.65;;
36855;SDS011;22788;51.434;6.786;2023-05-07T12:10:41;6.10;;;2.77;;
36855;SDS011;22788;51.434;6.786;2023-05-07T12:13:13;5.72;;;2.80;;
36855;SDS011;22788;51.434;6.786;2023-05-07T12:15:39;5.18;;;2.50;;
36855;SDS011;22788;51.434;6.786;2023-05-07T12:18:05;4.85;;;2.40;;
36855;SDS011;22788;51.434;6.786;2023-05-07T12:20:31;3.60;;;2.90;;
36855;SDS011;22788;51.434;6.786;2023-05-07T12:22:59;3.88;;;2.53;;
36855;SDS011;22788;51.434;6.786;2023-05-07T12:25:24;4.75;;;2.75;;
36855;SDS011;22788;51.434;6.786;2023-05-07T12:27:52;3.10;;;2.60;;
36855;SDS011;22788;51.434;6.786;2023-05-07T12:30:18;2.60;;;2.17;;
36855;SDS011;22788;51.434;6.786;2023-05-07T12:32:44;3.47;;;2.30;;
36855;SDS011;22788;51.434;6.786;2023-05-07T12:35:10;2.85;;;2.33;;
36855;SDS011;22788;51.434;6.786;2023-05-07T12:37:36;2.80;;;2.40;;
36855;SDS011;22788;51.434;6.786;2023-05-07T12:40:04;3.38;;;2.40;;
36855;SDS011;22788;51.434;6.786;2023-05-07T12:42:32;2.53;;;2.33;;
36855;SDS011;22788;51.434;6.786;2023-05-07T12:45:01;2.85;;;2.28;;
36855;SDS011;22788;51.434;6.786;2023-05-07T12:47:33;2.97;;;2.63;;
36855;SDS011;22788;51.434;6.786;2023-05-07T12:49:58;3.60;;;2.85;;
36855;SDS011;22788;51.434;6.786;2023-05-07T12:52:24;4.57;;;2.83;;
36855;SDS011;22788;51.434;6.786;2023-05-07T12:54:50;4.35;;;2.85;;
36855;SDS011;22788;51.434;6.786;2023-05-07T12:57:15;4.32;;;2.90;;
36855;SDS011;22788;51.434;6.786;2023-05-07T12:59:44;4.22;;;2.47;;
36855;SDS011;22788;51.434;6.786;2023-05-07T13:02:11;4.85;;;3.00;;
36855;SDS011;22788;51.434;6.786;2023-05-07T13:04:36;4.28;;;2.65;;
36855;SDS011;22788;51.434;6.786;2023-05-07T13:07:02;5.25;;;2.28;;
36855;SDS011;22788;51.434;6.786;2023-05-07T13:09:28;5.20;;;2.10;;
36855;SDS011;22788;51.434;6.786;2023-05-07T13:11:53;2.80;;;2.60;;
36855;SDS011;22788;51.434;6.786;2023-05-07T13:14:19;3.83;;;2.85;;
36855;SDS011;22788;51.434;6.786;2023-05-07T13:16:45;4.35;;;2.55;;
36855;SDS011;22788;51.434;6.786;2023-05-07T13:19:12;3.83;;;2.97;;
36855;SDS011;22788;51.434;6.786;2023-05-07T13:21:37;2.70;;;2.40;;
36855;SDS011;22788;51.434;6.786;2023-05-07T13:24:03;3.97;;;2.50;;
36855;SDS011;22788;51.434;6.786;2023-05-07T13:26:29;4.32;;;2.78;;
36855;SDS011;22788;51.434;6.786;2023-05-07T13:28:55;3.20;;;2.90;;
36855;SDS011;22788;51.434;6.786;2023-05-07T13:31:21;5.25;;;2.90;;
36855;SDS011;22788;51.434;6.786;2023-05-07T13:33:47;4.22;;;2.67;;
36855;SDS011;22788;51.434;6.786;2023-05-07T13:36:14;8.52;;;2.30;;
36855;SDS011;22788;51.434;6.786;2023-05-07T13:38:40;5.53;;;2.80;;
36855;SDS011;22788;51.434;6.786;2023-05-07T13:41:05;3.85;;;2.92;;
36855;SDS011;22788;51.434;6.786;2023-05-07T13:43:31;3.42;;;2.75;;
36855;SDS011;22788;51.434;6.786;2023-05-07T13:45:57;2.97;;;2.50;;
36855;SDS011;22788;51.434;6.786;2023-05-07T13:48:22;4.05;;;2.58;;
36855;SDS011;22788;51.434;6.786;2023-05-07T13:50:48;3.30;;;3.00;;
36855;SDS011;22788;51.434;6.786;2023-05-07T13:53:15;4.95;;;3.60;;
36855;SDS011;22788;51.434;6.786;2023-05-07T13:55:40;6.50;;;3.60;;
36855;SDS011;22788;51.434;6.786;2023-05-07T13:58:06;3.13;;;2.80;;
36855;SDS011;22788;51.434;6.786;2023-05-07T14:00:31;3.75;;;2.85;;
36855;SDS011;22788;51.434;6.786;2023-05-07T14:02:57;5.65;;;3.35;;
36855;SDS011;22788;51.434;6.786;2023-05-07T14:05:23;4.78;;;3.58;;
36855;SDS011;22788;51.434;6.786;2023-05-07T14:07:48;3.67;;;3.20;;
36855;SDS011;22788;51.434;6.786;2023-05-07T14:10:16;4.68;;;3.50;;
36855;SDS011;22788;51.434;6.786;2023-05-07T14:12:41;5.90;;;3.85;;
36855;SDS011;22788;51.434;6.786;2023-05-07T14:15:07;9.77;;;4.80;;
36855;SDS011;22788;51.434;6.786;2023-05-07T14:17:33;6.93;;;4.13;;
36855;SDS011;22788;51.434;6.786;2023-05-07T14:19:59;5.57;;;4.80;;
36855;SDS011;22788;51.434;6.786;2023-05-07T14:22:24;10.48;;;5.43;;
36855;SDS011;22788;51.434;6.786;2023-05-07T14:24:50;7.53;;;5.35;;
36855;SDS011;22788;51.434;6.786;2023-05-07T14:27:17;9.23;;;5.45;;
36855;SDS011;22788;51.434;6.786;2023-05-07T14:29:43;6.90;;;5.30;;
36855;SDS011;22788;51.434;6.786;2023-05-07T14:32:08;6.38;;;5.22;;
36855;SDS011;22788;51.434;6.786;2023-05-07T14:34:37;7.38;;;5.10;;
36855;SDS011;22788;51.434;6.786;2023-05-07T14:37:03;5.97;;;5.10;;
36855;SDS011;22788;51.434;6.786;2023-05-07T14:39:29;8.93;;;5.63;;
36855;SDS011;22788;51.434;6.786;2023-05-07T14:41:54;10.13;;;5.85;;
36855;SDS011;22788;51.434;6.786;2023-05-07T14:44:23;7.07;;;4.72;;
36855;SDS011;22788;51.434;6.786;2023-05-07T14:46:48;6.22;;;4.75;;
36855;SDS011;22788;51.434;6.786;2023-05-07T14:49:14;5.95;;;4.72;;